< < Back
Terminal Aerodrome Forecast


Current Version              Previous Versions:   1  2  3  4  5  6  7  8  9  

Terminal Aerodrome Forecast

695
FTUS42 KFFC 281131
TAFFTY
TAF
KFTY 281131Z 2812/2912 03003KT P6SM BKN200
     FM281500 09008KT P6SM SCT050 BKN120
     FM282000 10007G15KT P6SM SCT025 BKN050 OVC100
     FM290000 04008KT P6SM VCSH BKN025
     FM290200 04010KT 5SM -RA BR OVC015 PROB30 2906/2912 3SM RA BR
      OVC008=



Latest METAR

879
SAUS70 KWBC 281600 RRG
MTRFTY
METAR KFTY 281553Z 14008KT 10SM FEW050 19/04 A2994 RMK AO2 SLP134
T01940044


USA.gov is the U.S. government's official web portal to all federal, state and local government web resources and services.